Time;durP1;ratioP1;P1;durP2;ratioP2;P2;SDS_P1;SDS_P2;PMS_P1;PMS_P2;Temp;Humidity;BMP_temperature;BMP_pressure;BME280_temperature;BME280_humidity;BME280_pressure;Samples;Min_cycle;Max_cycle;Signal;HPM_P1;HPM_P2
2023/04/28 00:00:02;;;;;;;0.80;0.80;;;14.20;99.90;;;;;;5071892;28;20203;-66
2023/04/28 00:02:28;;;;;;;0.85;0.85;;;14.20;99.90;;;;;;5073237;28;20227;-63
2023/04/28 00:04:56;;;;;;;0.75;0.75;;;14.20;99.90;;;;;;5074210;28;20211;-64
2023/04/28 00:07:24;;;;;;;0.80;0.80;;;14.20;99.90;;;;;;5074283;28;20207;-63
2023/04/28 00:09:52;;;;;;;0.80;0.80;;;14.10;99.90;;;;;;5085288;28;20265;-64
2023/04/28 00:12:19;;;;;;;0.70;0.70;;;14.10;99.90;;;;;;5087500;28;20290;-65
2023/04/28 00:14:45;;;;;;;0.82;0.82;;;14.10;99.90;;;;;;5085372;28;20283;-63
2023/04/28 00:17:12;;;;;;;0.70;0.70;;;14.10;99.90;;;;;;5084848;28;20298;-64
2023/04/28 00:19:39;;;;;;;0.70;0.70;;;14.10;99.90;;;;;;5077410;28;20219;-63
2023/04/28 00:22:06;;;;;;;0.80;0.80;;;14.10;99.90;;;;;;5072244;28;20231;-62
2023/04/28 00:24:35;;;;;;;0.70;0.70;;;14.10;99.90;;;;;;5071498;28;20203;-65
2023/04/28 00:27:03;;;;;;;0.70;0.70;;;14.10;99.90;;;;;;5072175;28;20273;-65
2023/04/28 00:29:30;;;;;;;0.70;0.70;;;14.20;99.90;;;;;;5070652;28;20223;-64
2023/04/28 00:31:57;;;;;;;0.60;0.60;;;14.10;99.90;;;;;;5070695;28;20780;-64
2023/04/28 00:34:23;;;;;;;0.63;0.63;;;14.10;99.90;;;;;;5071427;28;20199;-63
2023/04/28 00:36:50;;;;;;;0.60;0.60;;;14.10;99.90;;;;;;5071525;28;20203;-64
2023/04/28 00:39:17;;;;;;;0.80;0.80;;;14.20;99.90;;;;;;5070656;28;20200;-63
2023/04/28 00:41:44;;;;;;;0.60;0.60;;;14.10;99.90;;;;;;5071128;28;20234;-64
2023/04/28 00:44:12;;;;;;;0.90;0.85;;;14.10;99.90;;;;;;5071355;28;20252;-64
2023/04/28 00:46:40;;;;;;;0.60;0.60;;;14.10;99.90;;;;;;5071226;28;20377;-64
2023/04/28 00:49:07;;;;;;;0.70;0.70;;;14.10;99.90;;;;;;5070483;28;20203;-63
2023/04/28 00:51:34;;;;;;;0.70;0.70;;;14.10;99.90;;;;;;5071095;28;20233;-65
2023/04/28 00:54:01;;;;;;;0.80;0.80;;;14.20;99.90;;;;;;5071141;28;20210;-63
2023/04/28 00:56:29;;;;;;;0.87;0.87;;;14.10;99.90;;;;;;5071635;28;20210;-63
2023/04/28 00:58:56;;;;;;;0.80;0.80;;;14.10;99.90;;;;;;5071017;28;20241;-64
2023/04/28 01:01:25;;;;;;;0.93;0.80;;;14.10;99.90;;;;;;5070257;28;20313;-64
2023/04/28 01:03:52;;;;;;;0.73;0.73;;;14.10;99.90;;;;;;5071977;28;20219;-65
2023/04/28 01:06:20;;;;;;;0.75;0.75;;;14.00;99.90;;;;;;5073451;28;20211;-63
2023/04/28 01:08:49;;;;;;;0.75;0.75;;;14.00;99.90;;;;;;5072702;28;20211;-64
2023/04/28 01:11:16;;;;;;;0.70;0.70;;;14.00;99.90;;;;;;5071724;28;20272;-64
2023/04/28 01:13:43;;;;;;;0.70;0.70;;;13.90;99.90;;;;;;5073237;28;20298;-64
2023/04/28 01:16:10;;;;;;;0.63;0.63;;;13.90;99.90;;;;;;5073517;28;20211;-64
2023/04/28 01:18:41;;;;;;;0.50;0.50;;;13.90;99.90;;;;;;5071464;28;20213;-65
2023/04/28 01:21:08;;;;;;;0.70;0.70;;;13.90;99.90;;;;;;5070755;28;20219;-64
2023/04/28 01:23:35;;;;;;;0.70;0.70;;;13.80;99.90;;;;;;5071424;28;20648;-64
2023/04/28 01:26:03;;;;;;;0.80;0.80;;;13.80;99.90;;;;;;5070711;28;20203;-62
2023/04/28 01:28:30;;;;;;;0.60;0.60;;;13.80;99.90;;;;;;5071481;28;20789;-64
2023/04/28 01:30:57;;;;;;;0.60;0.60;;;13.90;99.90;;;;;;5070515;28;20227;-65
2023/04/28 01:33:24;;;;;;;0.60;0.60;;;13.90;99.90;;;;;;5077078;28;20213;-64
2023/04/28 01:35:50;;;;;;;0.67;0.67;;;13.90;99.90;;;;;;5073684;28;20773;-64
2023/04/28 01:38:17;;;;;;;0.70;0.70;;;13.90;99.90;;;;;;5074843;28;20214;-63
2023/04/28 01:40:44;;;;;;;0.60;0.60;;;13.90;99.90;;;;;;5073453;28;20209;-65
2023/04/28 01:43:12;;;;;;;0.60;0.60;;;14.00;99.90;;;;;;5074208;28;20218;-64
2023/04/28 01:45:39;;;;;;;0.60;0.60;;;14.10;99.90;;;;;;5074425;28;20741;-64
2023/04/28 01:48:06;;;;;;;0.80;0.80;;;14.10;99.90;;;;;;5074837;28;20242;-65
2023/04/28 01:50:33;;;;;;;0.67;0.67;;;14.10;99.90;;;;;;5077029;28;20227;-64
2023/04/28 01:53:00;;;;;;;0.73;0.70;;;14.10;99.90;;;;;;5077725;28;20235;-63
2023/04/28 01:55:26;;;;;;;0.77;0.70;;;14.10;99.90;;;;;;5076423;28;20211;-63
2023/04/28 01:57:53;;;;;;;0.57;0.57;;;14.10;99.90;;;;;;5079518;28;20235;-63
2023/04/28 02:00:22;;;;;;;0.70;0.70;;;14.10;99.90;;;;;;5070415;28;20206;-64
2023/04/28 02:02:48;;;;;;;0.60;0.60;;;14.10;99.90;;;;;;5077696;28;20287;-65
2023/04/28 02:05:15;;;;;;;0.60;0.60;;;14.00;99.90;;;;;;5063064;28;20321;-64
2023/04/28 02:07:42;;;;;;;2.47;0.70;;;14.00;99.90;;;;;;5075120;28;20214;-64
2023/04/28 02:10:10;;;;;;;0.70;0.70;;;13.90;99.90;;;;;;5075390;28;20257;-63
2023/04/28 02:12:36;;;;;;;0.60;0.60;;;14.00;99.90;;;;;;5070144;28;20227;-64
2023/04/28 02:15:04;;;;;;;0.73;0.73;;;13.90;99.90;;;;;;5073619;28;20199;-65
2023/04/28 02:17:32;;;;;;;0.80;0.80;;;13.90;99.90;;;;;;5073491;28;20625;-63
2023/04/28 02:19:59;;;;;;;0.83;0.83;;;13.90;99.90;;;;;;5073026;28;20195;-65
2023/04/28 02:22:25;;;;;;;0.70;0.70;;;13.90;99.90;;;;;;5073907;28;20225;-63
2023/04/28 02:24:52;;;;;;;0.70;0.70;;;14.00;99.90;;;;;;5074003;28;20198;-65
2023/04/28 02:27:19;;;;;;;0.70;0.70;;;14.00;99.90;;;;;;5073748;28;20227;-63
2023/04/28 02:29:46;;;;;;;0.60;0.60;;;14.00;99.90;;;;;;5072375;28;20215;-63
2023/04/28 02:32:13;;;;;;;0.60;0.60;;;14.00;99.90;;;;;;5070264;28;20223;-64
2023/04/28 02:34:41;;;;;;;0.70;0.70;;;14.00;99.90;;;;;;5073497;28;20769;-63
2023/04/28 02:37:08;;;;;;;0.90;0.90;;;14.00;99.90;;;;;;5074083;28;20209;-64
2023/04/28 02:39:35;;;;;;;0.70;0.70;;;14.00;99.90;;;;;;5073049;28;20734;-64
2023/04/28 02:42:04;;;;;;;0.87;0.87;;;14.00;99.90;;;;;;5073318;28;20227;-63
2023/04/28 02:44:31;;;;;;;0.70;0.70;;;14.00;99.90;;;;;;5073838;28;20207;-64
2023/04/28 02:46:57;;;;;;;0.70;0.70;;;13.90;99.90;;;;;;5072881;28;20740;-64
2023/04/28 02:49:24;;;;;;;0.60;0.60;;;13.90;99.90;;;;;;5067875;28;20215;-64
2023/04/28 02:51:52;;;;;;;0.53;0.53;;;14.00;99.90;;;;;;5077623;28;20227;-64
2023/04/28 02:54:26;;;;;;;0.50;0.50;;;13.90;99.90;;;;;;5078845;28;20290;-64
2023/04/28 02:56:53;;;;;;;0.83;0.83;;;13.90;99.90;;;;;;5073147;28;20235;-64
2023/04/28 02:59:20;;;;;;;0.60;0.60;;;13.90;99.90;;;;;;5072161;28;20207;-63
2023/04/28 03:01:47;;;;;;;0.90;0.90;;;13.90;99.90;;;;;;5072980;28;20225;-67
2023/04/28 03:04:14;;;;;;;0.90;0.90;;;13.90;99.90;;;;;;5073051;28;20211;-64
2023/04/28 03:06:41;;;;;;;0.70;0.70;;;13.90;99.90;;;;;;5073021;28;20207;-64
2023/04/28 03:09:09;;;;;;;0.80;0.80;;;13.90;99.90;;;;;;5072007;28;20582;-65
2023/04/28 03:11:36;;;;;;;0.60;0.60;;;13.80;99.90;;;;;;5072762;28;20261;-64
2023/04/28 03:14:03;;;;;;;0.60;0.60;;;13.70;99.90;;;;;;5072978;28;20207;-64
2023/04/28 03:16:30;;;;;;;0.70;0.70;;;13.70;99.90;;;;;;5072528;28;20673;-63
2023/04/28 03:18:57;;;;;;;1.80;0.90;;;13.80;99.90;;;;;;5072714;28;20214;-64
2023/04/28 03:21:25;;;;;;;0.90;0.90;;;13.80;99.90;;;;;;5071964;28;20229;-64
2023/04/28 03:23:52;;;;;;;0.70;0.70;;;13.80;99.90;;;;;;5072877;28;20203;-63
2023/04/28 03:26:21;;;;;;;0.77;0.77;;;13.80;99.90;;;;;;5072791;28;20207;-64
2023/04/28 03:28:47;;;;;;;0.80;0.80;;;13.80;99.90;;;;;;5073679;28;20207;-65
2023/04/28 03:31:14;;;;;;;0.70;0.70;;;13.80;99.90;;;;;;5071938;28;20231;-64
2023/04/28 03:33:44;;;;;;;0.90;0.90;;;13.80;99.90;;;;;;5072497;28;20210;-65
2023/04/28 03:36:11;;;;;;;0.70;0.70;;;13.90;99.90;;;;;;5064421;28;20196;-64
2023/04/28 03:38:37;;;;;;;0.70;0.70;;;13.90;99.90;;;;;;5072366;28;20203;-65
2023/04/28 03:41:04;;;;;;;0.70;0.70;;;13.90;99.90;;;;;;5071691;28;20219;-65
2023/04/28 03:43:34;;;;;;;0.85;0.85;;;13.90;99.90;;;;;;5072394;28;20569;-63
2023/04/28 03:46:01;;;;;;;0.70;0.70;;;13.90;99.90;;;;;;5076828;28;20230;-64
2023/04/28 03:48:28;;;;;;;0.80;0.80;;;13.90;99.90;;;;;;5073370;28;20207;-65
2023/04/28 03:50:54;;;;;;;0.67;0.67;;;13.90;99.90;;;;;;5071481;28;20227;-64
2023/04/28 03:53:21;;;;;;;0.80;0.80;;;13.90;99.90;;;;;;5072005;28;20215;-64
2023/04/28 03:55:48;;;;;;;0.80;0.80;;;13.90;99.90;;;;;;5072383;28;20211;-64
2023/04/28 03:58:15;;;;;;;0.80;0.80;;;13.90;99.90;;;;;;5072396;28;20214;-63
2023/04/28 04:00:43;;;;;;;0.50;0.50;;;14.00;99.90;;;;;;5071362;28;20285;-64
2023/04/28 04:03:10;;;;;;;0.90;0.90;;;13.90;99.90;;;;;;5072078;28;20207;-63
2023/04/28 04:05:40;;;;;;;0.90;0.90;;;13.90;99.90;;;;;;5071972;28;20702;-65
2023/04/28 04:08:06;;;;;;;0.70;0.70;;;13.80;99.90;;;;;;5072354;28;20213;-64
2023/04/28 04:10:33;;;;;;;0.80;0.80;;;13.80;99.90;;;;;;5071889;28;20229;-63
2023/04/28 04:13:00;;;;;;;1.10;0.90;;;13.80;99.90;;;;;;5061488;28;20288;-63
2023/04/28 04:15:27;;;;;;;0.70;0.70;;;13.80;99.90;;;;;;5065886;28;20678;-64
2023/04/28 04:17:55;;;;;;;0.77;0.77;;;13.70;99.90;;;;;;5067021;28;20207;-63
2023/04/28 04:20:22;;;;;;;0.80;0.80;;;13.70;99.90;;;;;;5086287;28;20268;-64
2023/04/28 04:22:49;;;;;;;0.80;0.80;;;13.70;99.90;;;;;;5084063;28;20287;-64
2023/04/28 04:25:16;;;;;;;0.77;0.77;;;13.70;99.90;;;;;;5072398;28;20215;-63
2023/04/28 04:27:42;;;;;;;1.00;1.00;;;13.60;99.90;;;;;;5072002;28;20213;-63
2023/04/28 04:30:10;;;;;;;1.17;0.90;;;13.60;99.90;;;;;;5064661;28;20212;-63
2023/04/28 04:32:37;;;;;;;0.70;0.70;;;13.60;99.90;;;;;;5062915;28;20285;-64
2023/04/28 04:35:06;;;;;;;0.90;0.90;;;13.60;99.90;;;;;;5056331;28;20563;-63
2023/04/28 04:37:33;;;;;;;0.95;0.95;;;13.60;99.90;;;;;;5068668;28;20209;-63
2023/04/28 04:40:00;;;;;;;1.00;1.00;;;13.60;99.90;;;;;;5069420;28;20290;-64
2023/04/28 04:42:27;;;;;;;1.27;1.13;;;13.60;99.90;;;;;;5067456;28;20663;-63
2023/04/28 04:44:54;;;;;;;1.00;1.00;;;13.60;99.90;;;;;;5066337;28;20219;-64
2023/04/28 04:47:21;;;;;;;0.90;0.90;;;13.60;99.90;;;;;;5052183;28;20203;-63
2023/04/28 04:49:49;;;;;;;0.80;0.80;;;13.60;99.90;;;;;;5051193;28;20220;-64
2023/04/28 04:52:17;;;;;;;0.90;0.90;;;13.60;99.90;;;;;;5051206;28;20234;-64
2023/04/28 04:54:44;;;;;;;1.00;1.00;;;13.70;99.90;;;;;;5051139;28;20207;-64
2023/04/28 04:57:12;;;;;;;0.83;0.83;;;13.70;99.90;;;;;;5060263;28;20223;-64
2023/04/28 04:59:38;;;;;;;0.77;0.77;;;13.70;99.90;;;;;;5060940;28;20207;-64
2023/04/28 05:02:05;;;;;;;0.80;0.80;;;13.80;99.90;;;;;;5065019;28;20843;-64
2023/04/28 05:04:32;;;;;;;0.70;0.70;;;13.80;99.90;;;;;;5052582;28;20211;-64
2023/04/28 05:06:59;;;;;;;0.80;0.80;;;13.90;99.90;;;;;;5061700;28;20598;-64
2023/04/28 05:09:28;;;;;;;0.90;0.90;;;13.90;99.90;;;;;;5067743;28;20199;-65
2023/04/28 05:11:55;;;;;;;1.10;0.90;;;13.90;99.90;;;;;;5075278;28;20709;-64
2023/04/28 05:14:22;;;;;;;1.03;1.00;;;14.00;99.90;;;;;;5069315;28;20200;-64
2023/04/28 05:16:49;;;;;;;0.90;0.90;;;13.90;99.90;;;;;;5064078;28;20200;-64
2023/04/28 05:19:16;;;;;;;0.77;0.77;;;13.90;99.90;;;;;;5056289;28;20214;-64
2023/04/28 05:21:43;;;;;;;0.90;0.90;;;14.00;99.90;;;;;;5054222;28;20570;-64
2023/04/28 05:24:10;;;;;;;0.90;0.90;;;14.00;99.90;;;;;;5075630;28;20290;-63
2023/04/28 05:26:38;;;;;;;0.90;0.90;;;14.00;99.90;;;;;;5095566;28;20202;-64
2023/04/28 05:29:05;;;;;;;1.00;1.00;;;14.00;99.90;;;;;;5108162;28;20252;-62
2023/04/28 05:31:31;;;;;;;1.23;1.15;;;14.00;99.90;;;;;;5093731;28;20291;-62
2023/04/28 05:33:58;;;;;;;1.10;1.10;;;14.00;99.90;;;;;;5075841;28;20219;-63
2023/04/28 05:36:25;;;;;;;0.77;0.77;;;14.00;99.90;;;;;;5087549;28;20720;-63
2023/04/28 05:38:52;;;;;;;0.70;0.70;;;14.00;99.90;;;;;;5089498;28;20298;-63
2023/04/28 05:41:19;;;;;;;0.87;0.87;;;14.00;99.90;;;;;;5081469;28;20594;-64
2023/04/28 05:43:49;;;;;;;0.93;0.93;;;14.10;99.90;;;;;;5084938;28;20211;-64
2023/04/28 05:46:16;;;;;;;1.00;1.00;;;14.00;99.90;;;;;;5076711;28;20203;-65
2023/04/28 05:48:43;;;;;;;0.90;0.90;;;14.00;99.90;;;;;;5069439;28;20204;-63
2023/04/28 05:51:10;;;;;;;0.90;0.90;;;14.00;99.90;;;;;;5073625;28;20231;-63
2023/04/28 05:53:37;;;;;;;0.80;0.80;;;14.10;99.90;;;;;;5070982;28;20219;-64
2023/04/28 05:56:05;;;;;;;0.73;0.73;;;14.20;99.90;;;;;;5066240;28;20281;-64
2023/04/28 05:58:32;;;;;;;0.90;0.90;;;14.20;99.90;;;;;;5073785;28;20196;-65
2023/04/28 06:01:00;;;;;;;0.90;0.90;;;14.20;99.90;;;;;;5072836;28;20245;-64
2023/04/28 06:03:27;;;;;;;0.70;0.70;;;14.30;99.90;;;;;;5074355;28;20211;-63
2023/04/28 06:05:54;;;;;;;0.90;0.90;;;14.40;99.90;;;;;;5074596;28;20742;-63
2023/04/28 06:08:21;;;;;;;0.88;0.88;;;14.30;99.90;;;;;;5074310;28;20217;-63
2023/04/28 06:10:47;;;;;;;0.90;0.90;;;14.40;99.90;;;;;;5073165;28;20649;-63
2023/04/28 06:13:14;;;;;;;0.90;0.90;;;14.40;99.90;;;;;;5075978;28;20290;-64
2023/04/28 06:15:41;;;;;;;0.90;0.90;;;14.40;99.90;;;;;;5074970;28;20658;-63
2023/04/28 06:18:09;;;;;;;0.70;0.70;;;14.50;99.90;;;;;;5075509;28;20615;-64
2023/04/28 06:20:36;;;;;;;0.90;0.90;;;14.50;99.90;;;;;;5073835;28;20211;-63
2023/04/28 06:23:03;;;;;;;0.70;0.70;;;14.50;99.90;;;;;;5073749;28;20207;-63
2023/04/28 06:25:30;;;;;;;0.70;0.70;;;14.60;99.90;;;;;;5074522;28;20699;-62
2023/04/28 06:27:57;;;;;;;1.00;1.00;;;14.60;99.90;;;;;;5080973;28;20677;-62
2023/04/28 06:30:24;;;;;;;0.80;0.80;;;14.60;99.90;;;;;;5080227;28;20685;-63
2023/04/28 06:32:51;;;;;;;1.00;1.00;;;14.70;99.90;;;;;;5077187;28;20327;-63
2023/04/28 06:35:19;;;;;;;0.80;0.80;;;14.70;99.90;;;;;;5075065;28;20203;-63
2023/04/28 06:37:46;;;;;;;0.90;0.90;;;14.80;99.90;;;;;;5073470;28;20207;-64
2023/04/28 06:40:13;;;;;;;0.70;0.70;;;14.80;99.90;;;;;;5072479;28;20214;-62
2023/04/28 06:42:40;;;;;;;0.90;0.90;;;14.80;99.90;;;;;;5073096;28;20231;-63
2023/04/28 06:45:08;;;;;;;0.70;0.70;;;14.90;99.90;;;;;;5074676;28;20260;-63
2023/04/28 06:47:36;;;;;;;0.70;0.70;;;14.90;99.90;;;;;;5074539;28;20209;-63
2023/04/28 06:50:03;;;;;;;0.50;0.50;;;15.00;99.90;;;;;;5073339;28;20211;-62
2023/04/28 06:52:31;;;;;;;0.60;0.60;;;15.00;99.90;;;;;;5073647;28;20231;-63
2023/04/28 06:54:58;;;;;;;0.80;0.80;;;15.00;99.90;;;;;;5073210;28;20682;-63
2023/04/28 06:57:25;;;;;;;0.90;0.90;;;15.00;99.90;;;;;;5073587;28;20203;-62
2023/04/28 06:59:51;;;;;;;0.70;0.70;;;15.00;99.90;;;;;;5072638;28;20203;-63
2023/04/28 07:02:18;;;;;;;0.73;0.73;;;15.00;99.90;;;;;;5073289;28;20231;-63
2023/04/28 07:04:45;;;;;;;0.73;0.73;;;14.90;99.90;;;;;;5073172;28;20301;-63
2023/04/28 07:07:12;;;;;;;0.65;0.65;;;14.90;99.90;;;;;;5073448;28;20222;-63
2023/04/28 07:09:40;;;;;;;0.70;0.70;;;15.00;99.90;;;;;;5072522;28;20207;-64
2023/04/28 07:12:07;;;;;;;0.90;0.90;;;15.00;99.90;;;;;;5072982;28;20593;-63
2023/04/28 07:14:34;;;;;;;0.80;0.80;;;15.00;99.90;;;;;;5072915;28;20740;-63
2023/04/28 07:17:01;;;;;;;0.60;0.60;;;15.00;99.90;;;;;;5081079;28;20204;-63
2023/04/28 07:19:27;;;;;;;0.70;0.70;;;15.10;99.90;;;;;;5075582;28;20294;-64
2023/04/28 07:21:54;;;;;;;0.60;0.60;;;15.10;99.90;;;;;;5073044;28;20226;-63
2023/04/28 07:24:22;;;;;;;0.90;0.90;;;15.10;99.90;;;;;;5072696;28;20275;-63
2023/04/28 07:26:51;;;;;;;0.70;0.70;;;15.10;99.90;;;;;;5074171;28;20268;-63
2023/04/28 07:29:18;;;;;;;0.90;0.90;;;15.10;99.90;;;;;;5074126;28;20199;-63
2023/04/28 07:31:44;;;;;;;0.70;0.70;;;15.10;99.90;;;;;;5073457;28;20230;-64
2023/04/28 07:34:11;;;;;;;0.70;0.70;;;15.20;99.90;;;;;;5071337;28;20211;-62
2023/04/28 07:36:38;;;;;;;0.83;0.83;;;15.20;99.90;;;;;;5072438;28;20665;-63
2023/04/28 07:39:05;;;;;;;0.60;0.60;;;15.20;99.90;;;;;;5071494;28;20207;-63
2023/04/28 07:41:36;;;;;;;0.70;0.70;;;15.30;99.90;;;;;;5072136;28;20225;-63
2023/04/28 07:44:05;;;;;;;0.80;0.80;;;15.40;99.90;;;;;;5072181;28;20207;-63
2023/04/28 07:46:32;;;;;;;0.80;0.80;;;15.40;99.90;;;;;;5072107;28;20213;-63
2023/04/28 07:48:59;;;;;;;0.70;0.70;;;15.50;99.90;;;;;;5072358;28;20209;-63
2023/04/28 07:51:26;;;;;;;0.80;0.80;;;15.50;99.90;;;;;;5071890;28;20706;-64
2023/04/28 07:53:53;;;;;;;0.75;0.75;;;15.50;99.90;;;;;;5072104;28;20231;-63
2023/04/28 07:56:20;;;;;;;0.97;0.97;;;15.60;99.90;;;;;;5075838;28;20214;-62
2023/04/28 07:58:47;;;;;;;0.80;0.80;;;15.70;99.90;;;;;;5078171;28;20239;-62
2023/04/28 08:01:15;;;;;;;0.90;0.90;;;15.70;99.90;;;;;;5075883;28;20238;-62
2023/04/28 08:03:42;;;;;;;0.80;0.80;;;15.70;99.90;;;;;;5075123;28;20294;-64
2023/04/28 08:06:09;;;;;;;0.80;0.80;;;15.70;99.90;;;;;;5073270;28;20221;-64
2023/04/28 08:08:36;;;;;;;0.90;0.90;;;15.70;99.90;;;;;;5072146;28;20223;-62
2023/04/28 08:11:03;;;;;;;0.80;0.80;;;15.80;99.90;;;;;;5071630;28;20591;-63
2023/04/28 08:13:30;;;;;;;1.08;1.08;;;15.90;99.90;;;;;;5071997;28;20227;-63
2023/04/28 08:15:59;;;;;;;1.50;1.40;;;15.90;99.90;;;;;;5072751;28;20222;-63
2023/04/28 08:18:27;;;;;;;0.80;0.80;;;16.00;99.90;;;;;;5072562;28;20214;-63
2023/04/28 08:20:54;;;;;;;0.90;0.90;;;15.80;99.90;;;;;;5073176;28;20671;-63
2023/04/28 08:23:21;;;;;;;0.60;0.60;;;15.90;99.90;;;;;;5074818;28;20210;-63
2023/04/28 08:25:49;;;;;;;0.70;0.70;;;15.90;99.90;;;;;;5074039;28;20207;-62
2023/04/28 08:28:16;;;;;;;0.60;0.60;;;15.90;99.90;;;;;;5073561;28;20209;-64
2023/04/28 08:30:43;;;;;;;0.70;0.70;;;15.90;99.90;;;;;;5080327;28;20203;-63
2023/04/28 08:33:10;;;;;;;0.93;0.93;;;15.90;99.90;;;;;;5087564;28;20229;-63
2023/04/28 08:35:38;;;;;;;0.90;0.90;;;15.90;99.90;;;;;;5089051;28;20207;-65
2023/04/28 08:38:05;;;;;;;0.90;0.90;;;15.90;99.90;;;;;;5090025;28;20215;-65
2023/04/28 08:40:32;;;;;;;0.70;0.70;;;15.90;99.90;;;;;;5091502;28;20203;-63
2023/04/28 08:43:00;;;;;;;0.90;0.90;;;16.00;99.90;;;;;;5088777;28;20222;-64
2023/04/28 08:45:30;;;;;;;0.90;0.90;;;16.00;99.90;;;;;;5078712;28;20210;-64
2023/04/28 08:47:58;;;;;;;0.75;0.75;;;16.10;99.90;;;;;;5084568;28;20725;-63
2023/04/28 08:50:29;;;;;;;0.70;0.70;;;16.10;99.90;;;;;;5071988;28;20207;-63
2023/04/28 08:52:57;;;;;;;0.93;0.93;;;16.10;99.90;;;;;;5071831;28;20266;-63
2023/04/28 08:55:25;;;;;;;0.73;0.73;;;16.30;99.90;;;;;;5072210;28;20211;-63
2023/04/28 08:57:53;;;;;;;0.83;0.83;;;16.10;99.90;;;;;;5072522;28;20298;-62
2023/04/28 09:00:20;;;;;;;0.70;0.70;;;16.20;99.90;;;;;;5072149;28;20256;-62
2023/04/28 09:02:47;;;;;;;0.70;0.70;;;16.30;99.90;;;;;;5071989;28;20218;-64
2023/04/28 09:05:14;;;;;;;0.70;0.70;;;16.40;99.90;;;;;;5071482;28;20203;-64
2023/04/28 09:07:45;;;;;;;0.90;0.90;;;16.50;99.90;;;;;;5072607;28;20207;-64
2023/04/28 09:10:23;;;;;;;0.77;0.77;;;16.50;99.90;;;;;;5072985;28;20293;-63
2023/04/28 09:12:52;;;;;;;0.63;0.63;;;16.60;99.90;;;;;;5071571;28;20312;-63
2023/04/28 09:15:39;;;;;;;0.70;0.70;;;16.60;99.90;;;;;;5072361;28;20230;-63
2023/04/28 09:18:07;;;;;;;0.60;0.60;;;16.70;99.90;;;;;;5072030;28;20565;-64
2023/04/28 09:20:35;;;;;;;0.70;0.70;;;16.80;99.90;;;;;;5069029;28;20288;-63
2023/04/28 09:23:14;;;;;;;0.63;0.63;;;16.90;99.90;;;;;;5072051;28;20227;-63
2023/04/28 09:25:56;;;;;;;0.68;0.68;;;17.00;99.90;;;;;;5072406;28;20617;-64
2023/04/28 09:28:23;;;;;;;0.70;0.70;;;17.10;99.90;;;;;;5072995;28;20221;-64
2023/04/28 09:30:50;;;;;;;0.80;0.80;;;17.20;99.90;;;;;;5071187;28;20211;-64
2023/04/28 09:33:17;;;;;;;0.93;0.70;;;17.30;99.90;;;;;;5073499;28;20318;-64
2023/04/28 09:35:45;;;;;;;0.67;0.67;;;17.40;99.90;;;;;;5072475;28;20206;-65
2023/04/28 09:38:12;;;;;;;0.45;0.40;;;17.50;99.90;;;;;;5072137;28;20215;-63
2023/04/28 09:40:58;;;;;;;0.50;0.50;;;17.60;99.90;;;;;;5070382;28;20631;-63
2023/04/28 09:43:26;;;;;;;0.40;0.40;;;17.80;99.90;;;;;;5071470;28;20208;-63
2023/04/28 09:45:53;;;;;;;0.40;0.40;;;17.90;99.90;;;;;;5071007;28;20211;-64
2023/04/28 09:48:28;;;;;;;0.40;0.40;;;17.90;99.90;;;;;;5074898;28;20210;-64
2023/04/28 09:50:55;;;;;;;0.67;0.67;;;17.80;99.90;;;;;;5073537;28;20214;-64
2023/04/28 09:53:23;;;;;;;0.50;0.50;;;17.90;99.90;;;;;;5072087;28;20280;-63
2023/04/28 09:55:51;;;;;;;0.57;0.57;;;18.00;99.90;;;;;;5071577;28;20204;-63
2023/04/28 09:58:20;;;;;;;0.60;0.60;;;17.90;99.90;;;;;;5073489;28;20302;-64
2023/04/28 10:00:53;;;;;;;0.47;0.47;;;18.10;99.90;;;;;;5071722;28;20207;-64
2023/04/28 10:03:22;;;;;;;0.50;0.50;;;18.10;99.90;;;;;;5074151;28;20260;-64
2023/04/28 10:05:50;;;;;;;0.82;0.50;;;18.10;99.90;;;;;;5073738;28;20207;-63
2023/04/28 10:08:18;;;;;;;0.60;0.60;;;18.20;99.90;;;;;;5073263;28;20207;-63
2023/04/28 10:10:47;;;;;;;0.30;0.30;;;18.20;99.90;;;;;;5072224;28;20737;-64
2023/04/28 10:13:15;;;;;;;0.70;0.70;;;18.10;99.90;;;;;;5073973;28;20259;-63
2023/04/28 10:15:43;;;;;;;0.30;0.30;;;18.10;99.90;;;;;;5073710;28;20211;-62
2023/04/28 10:18:12;;;;;;;0.60;0.60;;;18.10;99.90;;;;;;5073182;28;20706;-62
2023/04/28 10:20:42;;;;;;;0.50;0.50;;;18.00;99.90;;;;;;5071472;28;20686;-63
2023/04/28 10:23:31;;;;;;;0.47;0.47;;;17.90;99.90;;;;;;5070889;28;20199;-63
2023/04/28 10:25:59;;;;;;;0.40;0.40;;;18.10;99.90;;;;;;5073252;28;20226;-62
2023/04/28 10:28:27;;;;;;;0.60;0.60;;;18.00;99.90;;;;;;5072241;28;20206;-62
2023/04/28 10:31:12;;;;;;;0.50;0.50;;;18.10;99.90;;;;;;5071605;28;20210;-64
2023/04/28 10:33:39;;;;;;;0.77;0.40;;;18.20;99.90;;;;;;5073031;28;20243;-63
2023/04/28 10:36:07;;;;;;;0.35;0.35;;;18.30;99.90;;;;;;5074484;28;20211;-64
2023/04/28 10:38:35;;;;;;;0.47;0.47;;;18.60;99.90;;;;;;5071129;28;20576;-62
2023/04/28 10:41:02;;;;;;;0.30;0.30;;;18.70;99.90;;;;;;5070573;28;20626;-64
2023/04/28 10:43:38;;;;;;;0.40;0.40;;;18.70;99.90;;;;;;5071901;28;20281;-64
2023/04/28 10:46:06;;;;;;;0.40;0.40;;;18.70;99.90;;;;;;5073206;28;20199;-64
2023/04/28 10:48:57;;;;;;;0.30;0.30;;;18.80;99.90;;;;;;5072408;28;20747;-63
2023/04/28 10:51:32;;;;;;;0.50;0.50;;;18.90;99.90;;;;;;5071671;28;20320;-63
2023/04/28 10:54:18;;;;;;;0.50;0.50;;;19.00;99.90;;;;;;5081835;28;20341;-64
2023/04/28 10:57:19;;;;;;;0.38;0.38;;;19.10;99.90;;;;;;5079977;28;20202;-63
2023/04/28 10:59:46;;;;;;;0.40;0.40;;;19.20;99.90;;;;;;5086352;28;20212;-63
2023/04/28 11:02:36;;;;;;;0.40;0.40;;;19.60;99.90;;;;;;5078973;28;20766;-63
2023/04/28 11:05:21;;;;;;;0.50;0.50;;;19.80;99.90;;;;;;5074188;28;20212;-63
2023/04/28 11:08:28;;;;;;;0.30;0.30;;;19.90;99.90;;;;;;5075512;28;20195;-64
2023/04/28 11:11:18;;;;;;;0.65;0.50;;;20.10;99.90;;;;;;5075970;28;20241;-64
2023/04/28 11:13:46;;;;;;;0.60;0.60;;;20.20;99.90;;;;;;5075289;28;20314;-63
2023/04/28 11:16:25;;;;;;;0.50;0.50;;;20.10;99.90;;;;;;5073147;28;20706;-64
2023/04/28 11:18:58;;;;;;;0.60;0.60;;;20.10;99.90;;;;;;5071698;28;20216;-63
2023/04/28 11:21:28;;;;;;;0.30;0.30;;;20.10;99.90;;;;;;5071041;28;20231;-64
2023/04/28 11:23:55;;;;;;;0.80;0.70;;;20.20;99.90;;;;;;5071131;28;20724;-63
2023/04/28 11:26:23;;;;;;;0.35;0.35;;;20.40;99.90;;;;;;5063011;28;20294;-64
2023/04/28 11:28:54;;;;;;;0.50;0.50;;;20.40;99.90;;;;;;5063336;28;20234;-63
2023/04/28 11:31:24;;;;;;;0.40;0.40;;;20.40;99.90;;;;;;5066388;28;20231;-64
2023/04/28 11:33:58;;;;;;;0.50;0.50;;;20.50;99.90;;;;;;5050715;28;20235;-64
2023/04/28 11:36:30;;;;;;;0.40;0.40;;;20.50;99.90;;;;;;5051179;28;20583;-62
2023/04/28 11:38:57;;;;;;;0.45;0.45;;;20.40;99.90;;;;;;5051128;28;20210;-64
2023/04/28 11:41:25;;;;;;;0.30;0.30;;;20.30;99.90;;;;;;5051016;28;20676;-64
2023/04/28 11:43:52;;;;;;;0.35;0.35;;;20.20;99.90;;;;;;5055606;28;20261;-63
2023/04/28 11:46:20;;;;;;;0.20;0.20;;;19.90;99.90;;;;;;5050844;28;20203;-64
2023/04/28 11:48:47;;;;;;;0.47;0.47;;;19.70;99.90;;;;;;5050895;28;20214;-63
2023/04/28 11:51:32;;;;;;;0.35;0.35;;;19.60;99.90;;;;;;5056544;28;20295;-63
2023/04/28 11:54:00;;;;;;;0.50;0.50;;;19.40;99.90;;;;;;5052633;28;20275;-64
2023/04/28 11:56:27;;;;;;;0.38;0.38;;;19.40;99.90;;;;;;5050915;28;20214;-63
2023/04/28 11:59:03;;;;;;;0.95;0.70;;;19.30;99.90;;;;;;5049141;28;20669;-64
2023/04/28 12:01:30;;;;;;;0.50;0.50;;;19.10;99.90;;;;;;5051240;28;20628;-64
2023/04/28 12:03:57;;;;;;;0.35;0.35;;;19.00;99.90;;;;;;5050092;28;20257;-63
2023/04/28 12:06:24;;;;;;;0.30;0.30;;;19.10;99.90;;;;;;5049408;28;20238;-64
2023/04/28 12:08:52;;;;;;;0.50;0.50;;;19.10;99.90;;;;;;5049905;28;20705;-64
2023/04/28 12:11:20;;;;;;;0.47;0.47;;;19.20;99.90;;;;;;5048841;28;20318;-64
2023/04/28 12:14:05;;;;;;;0.73;0.45;;;19.20;99.90;;;;;;5049583;28;20289;-63
2023/04/28 12:16:44;;;;;;;0.25;0.25;;;19.20;99.90;;;;;;5064691;28;20264;-64
2023/04/28 12:19:12;;;;;;;0.52;0.52;;;19.20;99.90;;;;;;5068243;28;20215;-64
2023/04/28 12:21:39;;;;;;;0.80;0.80;;;19.10;99.90;;;;;;5052805;28;20227;-64
2023/04/28 12:24:19;;;;;;;0.70;0.68;;;19.20;99.90;;;;;;5048717;28;20204;-64
2023/04/28 12:26:46;;;;;;;0.75;0.75;;;19.20;99.90;;;;;;5048567;28;20219;-63
2023/04/28 12:29:36;;;;;;;0.43;0.43;;;19.10;99.90;;;;;;5048165;28;20219;-63
2023/04/28 12:32:03;;;;;;;0.40;0.40;;;19.00;99.90;;;;;;5047888;28;20232;-65
2023/04/28 12:34:32;;;;;;;0.60;0.60;;;18.90;99.90;;;;;;5048784;28;20224;-63
2023/04/28 12:36:59;;;;;;;0.60;0.60;;;18.90;99.90;;;;;;5049804;28;20231;-64
2023/04/28 12:39:27;;;;;;;0.32;0.32;;;18.90;99.90;;;;;;5048846;28;20215;-63
2023/04/28 12:41:54;;;;;;;0.35;0.32;;;18.90;99.90;;;;;;5048102;28;20240;-63
2023/04/28 12:44:22;;;;;;;0.38;0.38;;;18.90;99.90;;;;;;5046444;28;20226;-63
2023/04/28 12:46:49;;;;;;;0.30;0.30;;;18.90;99.90;;;;;;5058520;28;20211;-65
2023/04/28 12:49:16;;;;;;;0.40;0.40;;;18.90;99.90;;;;;;5068180;28;20773;-64
2023/04/28 12:51:43;;;;;;;0.60;0.60;;;18.80;99.90;;;;;;5068551;28;20725;-63
2023/04/28 12:54:09;;;;;;;0.40;0.40;;;18.80;99.90;;;;;;5070433;28;20254;-63